Lowest pressure

Not for real navigation. The accuracy of this data is not assured See disclaimer for more information



ICAO NAME COUNTRY WIND Kt GUST Kt VIS m TEMP/DEW C BARO METAR
SCRM 25 0 3000 -1/-1 28.64 SCRM 222000Z 29025KT 3000 DRSN OVC004 M01/M01 Q0970
CYLU Kangiksualujjuaq A Canada 8 0 4800 11/10 28.91 CYLU 222020Z 22008KT 3SM -DZ BR BCFG BKN002 OVC005 11/10 A2891 RMK ST5ST3 SLP796 DENSITY ALT 1000FT
CYDP Nain, Nfld Canada 4 0 12800 6/6 28.96 CYDP 222000Z 32004KT 300V090 8SM -SHRA FEW002 FEW008 SCT018 OVC080 06/06 A2896 RMK SF1SF1SC2AS4 SLP8
USRR Surgut Russia 7 0 9999 9/9 28.97 USRR 222000Z 21007KT 9999 -SHRA SCT010 BKN029CB 09/09 Q0981 R25/250350 NOSIG RMK QFE731
CYVP Kuujjuaq, Que. Canada 6 0 16000 12/11 28.98 CYVP 222000Z 29006KT 10SM -RA FEW010 BKN017 OVC028 12/11 A2898 RMK SF2SC5SC1 VIS NE 3 SLP818 DENSITY

Show more